Time;durP1;ratioP1;P1;durP2;ratioP2;P2;SDS_P1;SDS_P2;PMS_P1;PMS_P2;Temp;Humidity;BMP_temperature;BMP_pressure;BME280_temperature;BME280_humidity;BME280_pressure;Samples;Min_cycle;Max_cycle;Signal;HPM_P1;HPM_P2
2023/05/27 00:02:04;;;;;;;14.10;2.83;;;;;;;8.77;95.13;102778.06;4987843;28;20081;-95
2023/05/27 00:04:32;;;;;;;19.53;2.87;;;;;;;8.73;95.50;102770.66;4973150;28;20082;-96
2023/05/27 00:06:59;;;;;;;11.70;2.78;;;;;;;8.48;95.68;102747.06;4987358;28;20034;-96
2023/05/27 00:09:26;;;;;;;16.88;3.38;;;;;;;8.72;95.73;102774.34;5008207;28;20023;-95
2023/05/27 00:11:52;;;;;;;18.08;3.67;;;;;;;8.52;96.86;102760.84;5007104;28;20029;-95
2023/05/27 00:14:21;;;;;;;16.85;3.00;;;;;;;8.58;97.26;102771.56;5005412;28;20018;-96
2023/05/27 00:16:49;;;;;;;14.13;3.42;;;;;;;8.34;96.99;102746.97;4994637;28;20026;-96
2023/05/27 00:19:16;;;;;;;14.65;3.15;;;;;;;8.33;96.69;102747.97;4998150;28;20046;-96
2023/05/27 00:21:42;;;;;;;14.38;3.13;;;;;;;8.34;97.23;102754.13;5015016;28;20023;-96
2023/05/27 00:24:08;;;;;;;14.13;2.90;;;;;;;8.38;97.61;102752.72;4997922;28;20032;-96
2023/05/27 00:26:33;;;;;;;13.68;3.20;;;;;;;8.35;97.50;102753.13;4995551;28;20368;-95
2023/05/27 00:28:59;;;;;;;20.57;3.00;;;;;;;8.43;98.08;102769.00;4997544;28;20026;-96
2023/05/27 00:31:25;;;;;;;10.23;3.08;;;;;;;8.30;98.36;102756.38;4982735;28;20030;-95
2023/05/27 00:33:50;;;;;;;12.73;3.00;;;;;;;8.22;98.18;102753.03;5017445;28;20014;-94
2023/05/27 00:36:16;;;;;;;12.88;2.90;;;;;;;8.13;98.62;102739.81;5002779;28;20018;-96
2023/05/27 00:38:42;;;;;;;11.98;2.97;;;;;;;8.14;99.12;102756.69;5003579;28;20014;-96
2023/05/27 00:41:11;;;;;;;7.73;2.60;;;;;;;8.07;99.04;102750.44;4964274;28;20097;-96
2023/05/27 00:43:37;;;;;;;12.60;2.80;;;;;;;8.00;99.19;102753.91;4974423;28;20022;-96
2023/05/27 00:46:03;;;;;;;15.05;3.22;;;;;;;7.95;99.91;102742.97;4992376;28;20027;-96
2023/05/27 00:48:29;;;;;;;16.38;3.00;;;;;;;7.82;99.66;102733.00;4980454;28;20022;-96
2023/05/27 00:50:57;;;;;;;18.10;3.67;;;;;;;7.99;100.00;102760.28;4998078;28;20030;-96
2023/05/27 00:53:23;;;;;;;11.70;2.90;;;;;;;7.78;100.00;102734.41;4996003;28;20133;-95
2023/05/27 00:55:53;;;;;;;11.65;2.40;;;;;;;7.80;100.00;102734.22;5015792;28;20022;-96
2023/05/27 00:58:21;;;;;;;14.13;3.40;;;;;;;7.82;100.00;102746.34;5011411;28;20042;-96
2023/05/27 01:00:48;;;;;;;20.55;3.17;;;;;;;7.65;100.00;102727.13;4997569;28;20038;-96
2023/05/27 01:03:20;;;;;;;17.45;3.28;;;;;;;7.61;100.00;102720.50;4983972;28;20046;-96
2023/05/27 01:05:48;;;;;;;12.10;2.30;;;;;;;7.72;100.00;102741.34;5011109;28;20081;-95
2023/05/27 01:08:30;;;;;;;11.82;2.65;;;;;;;7.57;100.00;102714.75;4993900;28;20027;-96
2023/05/27 01:10:56;;;;;;;14.30;2.93;;;;;;;7.61;100.00;102728.53;4992057;28;20094;-96
2023/05/27 01:13:35;;;;;;;15.77;3.07;;;;;;;7.61;100.00;102733.00;5007288;28;20293;-96
2023/05/27 01:16:05;;;;;;;15.02;2.75;;;;;;;7.66;100.00;102749.28;5008493;28;20528;-96
2023/05/27 01:18:33;;;;;;;12.85;2.50;;;;;;;7.56;100.00;102736.25;5004795;28;20038;-96
2023/05/27 01:21:12;;;;;;;16.42;2.95;;;;;;;7.53;100.00;102733.97;4990815;28;20038;-96
2023/05/27 01:23:39;;;;;;;10.32;2.78;;;;;;;7.37;100.00;102716.38;5014320;28;20029;-96
2023/05/27 01:26:05;;;;;;;14.85;3.35;;;;;;;7.35;100.00;102721.09;4994033;28;20110;-96
2023/05/27 01:28:31;;;;;;;13.32;3.28;;;;;;;7.42;100.00;102732.63;4996673;28;20027;-96
2023/05/27 01:31:10;;;;;;;16.53;2.87;;;;;;;7.20;100.00;102705.97;5000695;28;20018;-96
2023/05/27 01:33:38;;;;;;;13.23;3.30;;;;;;;7.26;100.00;102715.84;5010182;28;20301;-96
2023/05/27 01:36:10;;;;;;;14.82;3.35;;;;;;;7.27;100.00;102719.38;5002075;28;20017;-96
2023/05/27 01:38:40;;;;;;;13.10;3.05;;;;;;;7.37;100.00;102733.22;5008712;28;20094;-96
2023/05/27 01:41:07;;;;;;;18.83;3.35;;;;;;;7.27;100.00;102728.19;5018964;28;20019;-96
2023/05/27 01:43:33;;;;;;;13.45;2.95;;;;;;;7.22;100.00;102727.09;5015390;28;20019;-96
2023/05/27 01:46:00;;;;;;;12.98;3.17;;;;;;;7.13;100.00;102719.19;5005358;28;20026;-96
2023/05/27 01:48:25;;;;;;;17.48;3.97;;;;;;;7.19;100.00;102733.63;4984543;28;20113;-96
2023/05/27 01:50:51;;;;;;;12.93;3.00;;;;;;;6.96;100.00;102694.63;4986596;28;20057;-96
2023/05/27 01:53:17;;;;;;;18.52;3.40;;;;;;;7.13;100.00;102729.88;5005006;28;20036;-96
2023/05/27 01:55:42;;;;;;;17.03;3.37;;;;;;;6.94;100.00;102695.81;4969798;28;20050;-96
2023/05/27 01:58:20;;;;;;;16.30;3.30;;;;;;;6.92;100.00;102703.19;4982195;28;20031;-96
2023/05/27 02:00:46;;;;;;;20.25;3.42;;;;;;;6.88;100.00;102683.25;4968928;28;20447;-96
2023/05/27 02:03:11;;;;;;;12.02;3.60;;;;;;;7.06;100.00;102712.97;4957487;28;20014;-96
2023/05/27 02:05:37;;;;;;;14.53;3.70;;;;;;;6.99;100.00;102705.94;4993381;28;20027;-96
2023/05/27 02:08:03;;;;;;;13.52;3.33;;;;;;;6.96;100.00;102715.09;4987537;28;20016;-96
2023/05/27 02:10:29;;;;;;;18.77;3.43;;;;;;;6.77;100.00;102688.03;4986297;28;20042;-96
2023/05/27 02:12:54;;;;;;;16.30;3.35;;;;;;;6.95;100.00;102716.13;4982815;28;20023;-96
2023/05/27 02:15:23;;;;;;;13.57;3.42;;;;;;;6.71;100.00;102687.94;4987487;28;20046;-96
2023/05/27 02:17:55;;;;;;;16.35;3.35;;;;;;;6.76;100.00;102699.69;4985311;28;20072;-96
2023/05/27 02:20:24;;;;;;;9.20;3.20;;;;;;;6.73;100.00;102696.59;4990955;28;20014;-96
2023/05/27 02:22:50;;;;;;;15.43;3.13;;;;;;;6.86;100.00;102717.25;4988356;28;20308;-95
2023/05/27 02:25:16;;;;;;;11.65;3.20;;;;;;;6.85;100.00;102732.41;4990428;28;20015;-96
2023/05/27 02:27:47;;;;;;;14.98;3.90;;;;;;;6.80;100.00;102727.63;4988541;28;20050;-96
2023/05/27 02:30:18;;;;;;;19.02;3.20;;;;;;;6.64;100.00;102718.00;4976420;28;20070;-96
2023/05/27 02:32:59;;;;;;;12.77;3.55;;;;;;;6.61;100.00;102712.22;4984470;28;20073;-96
2023/05/27 02:40:29;;;;;;;18.67;3.80;;;;;;;6.55;100.00;102726.28;4975992;28;20314;-95
2023/05/27 02:53:45;;;;;;;17.20;3.70;;;;;;;6.38;100.00;102702.50;5297625;23;20297;-96
2023/05/27 02:56:11;;;;;;;17.08;3.17;;;;;;;6.43;100.00;102712.59;5002999;28;20054;-96
2023/05/27 02:58:37;;;;;;;16.08;3.67;;;;;;;6.52;100.00;102735.44;4992355;28;20034;-92
2023/05/27 03:01:02;;;;;;;14.83;3.97;;;;;;;6.48;100.00;102726.19;4981724;28;20042;-93
2023/05/27 03:03:27;;;;;;;14.32;3.42;;;;;;;6.40;100.00;102732.41;4994952;28;20027;-94
2023/05/27 03:05:53;;;;;;;16.13;3.67;;;;;;;6.38;100.00;102737.13;4993265;28;20030;-92
2023/05/27 03:08:18;;;;;;;13.37;3.33;;;;;;;6.36;100.00;102739.13;4978792;28;20302;-93
2023/05/27 03:10:43;;;;;;;15.53;3.93;;;;;;;6.29;100.00;102727.53;4974697;28;20542;-93
2023/05/27 03:13:08;;;;;;;12.63;4.03;;;;;;;6.30;100.00;102734.53;4976076;28;20077;-94
2023/05/27 03:15:35;;;;;;;16.40;3.50;;;;;;;6.36;100.00;102741.78;4974921;28;20030;-95
2023/05/27 03:18:01;;;;;;;14.20;3.53;;;;;;;6.24;100.00;102732.59;4975007;28;20049;-94
2023/05/27 03:20:27;;;;;;;12.88;3.15;;;;;;;6.22;100.00;102732.78;4975071;28;20093;-94
2023/05/27 03:22:52;;;;;;;18.97;3.60;;;;;;;6.24;100.00;102735.25;4975703;28;20034;-93
2023/05/27 03:25:17;;;;;;;16.25;4.25;;;;;;;6.17;100.00;102737.81;4976049;28;20101;-94
2023/05/27 03:27:43;;;;;;;14.17;3.50;;;;;;;6.14;100.00;102733.69;4976639;28;20027;-94
2023/05/27 03:30:09;;;;;;;14.43;3.73;;;;;;;6.15;100.00;102740.66;4975790;28;20022;-93
2023/05/27 03:32:34;;;;;;;15.55;3.60;;;;;;;6.08;100.00;102726.41;4956140;28;20054;-94
2023/05/27 03:35:00;;;;;;;14.47;3.47;;;;;;;6.14;100.00;102732.84;4969900;28;20029;-94
2023/05/27 03:37:26;;;;;;;23.02;4.00;;;;;;;6.10;100.00;102729.72;4972037;28;20027;-94
2023/05/27 03:39:51;;;;;;;17.13;4.13;;;;;;;6.10;100.00;102727.06;4973621;28;20031;-95
2023/05/27 03:42:18;;;;;;;15.27;4.20;;;;;;;6.13;100.00;102713.41;4974126;28;20557;-93
2023/05/27 03:44:44;;;;;;;18.00;3.80;;;;;;;6.17;100.00;102717.34;4973105;28;20046;-93
2023/05/27 03:47:09;;;;;;;13.70;3.60;;;;;;;6.19;100.00;102718.00;4972392;28;20408;-95
2023/05/27 03:49:34;;;;;;;15.80;3.90;;;;;;;6.15;100.00;102705.22;4969644;28;20038;-93
2023/05/27 03:52:01;;;;;;;15.20;3.90;;;;;;;6.17;100.00;102709.38;4985371;28;20027;-96
2023/05/27 03:54:26;;;;;;;18.15;4.20;;;;;;;6.16;100.00;102710.38;4990227;28;20025;-96
2023/05/27 03:56:51;;;;;;;25.47;4.70;;;;;;;6.18;100.00;102705.69;4995890;28;20028;-95
2023/05/27 03:59:20;;;;;;;16.20;4.10;;;;;;;6.21;100.00;102709.81;4993445;28;20375;-94
2023/05/27 04:01:53;;;;;;;13.73;3.57;;;;;;;6.19;100.00;102709.19;4994468;28;20533;-95
2023/05/27 04:04:27;;;;;;;17.43;4.17;;;;;;;6.20;100.00;102706.34;4974440;28;20298;-95
2023/05/27 04:06:55;;;;;;;15.80;3.55;;;;;;;6.20;100.00;102706.34;4959215;28;20039;-95
2023/05/27 04:09:21;;;;;;;17.23;3.90;;;;;;;6.29;100.00;102708.91;5002599;28;20030;-92
2023/05/27 04:11:47;;;;;;;13.82;4.05;;;;;;;6.38;100.00;102707.81;4993554;28;20099;-90
2023/05/27 04:14:12;;;;;;;14.27;3.60;;;;;;;6.46;100.00;102706.91;4970631;28;20027;-91
2023/05/27 04:16:41;;;;;;;13.20;4.00;;;;;;;6.51;100.00;102707.16;4976351;28;20041;-92
2023/05/27 04:19:07;;;;;;;12.65;3.60;;;;;;;6.58;100.00;102715.25;4968525;28;20104;-92
2023/05/27 04:21:32;;;;;;;19.80;4.30;;;;;;;6.58;100.00;102708.09;4939034;29;20031;-92
2023/05/27 04:23:58;;;;;;;12.85;4.43;;;;;;;6.61;100.00;102710.38;4974140;28;20041;-91
2023/05/27 04:26:23;;;;;;;12.10;4.20;;;;;;;6.58;100.00;102701.91;4975420;28;20077;-91
2023/05/27 04:28:48;;;;;;;22.10;4.87;;;;;;;6.63;100.00;102703.03;4976630;28;20486;-91
2023/05/27 04:31:15;;;;;;;17.17;4.47;;;;;;;6.73;100.00;102705.41;4975210;28;20493;-90
2023/05/27 04:33:44;;;;;;;14.43;4.15;;;;;;;6.74;100.00;102695.56;4973906;28;20061;-91
2023/05/27 04:36:10;;;;;;;17.27;4.50;;;;;;;6.81;100.00;102694.66;4974104;28;20038;-91
2023/05/27 04:38:35;;;;;;;16.63;4.10;;;;;;;6.88;100.00;102699.25;4969631;28;20463;-90
2023/05/27 04:41:01;;;;;;;18.83;4.87;;;;;;;6.98;100.00;102694.41;4973526;28;20031;-89
2023/05/27 04:43:29;;;;;;;14.93;4.93;;;;;;;7.03;100.00;102691.22;4975145;28;20102;-90
2023/05/27 04:45:55;;;;;;;15.45;4.03;;;;;;;7.07;100.00;102685.31;4975294;28;20102;-89
2023/05/27 04:48:23;;;;;;;18.50;4.47;;;;;;;7.06;100.00;102670.34;4954446;29;20059;-90
2023/05/27 04:50:48;;;;;;;17.50;4.33;;;;;;;7.18;100.00;102684.00;4954651;29;20035;-90
2023/05/27 04:53:14;;;;;;;14.87;4.43;;;;;;;7.60;100.00;102686.84;4956333;28;20402;-91
2023/05/27 04:55:41;;;;;;;18.63;4.87;;;;;;;8.43;100.00;102693.38;4966755;28;20061;-90
2023/05/27 04:58:06;;;;;;;13.48;4.43;;;;;;;9.21;100.00;102676.22;4975160;28;20037;-90
2023/05/27 05:00:52;;;;;;;16.83;4.37;;;;;;;9.77;100.00;102676.88;4975650;28;20023;-91
2023/05/27 05:03:21;;;;;;;16.67;3.90;;;;;;;10.44;96.94;102684.81;4973745;28;20034;-90
2023/05/27 05:05:53;;;;;;;13.38;4.00;;;;;;;11.01;93.19;102682.28;4971098;28;20031;-89
2023/05/27 05:08:20;;;;;;;13.18;4.00;;;;;;;11.43;89.65;102679.09;4967255;28;20027;-88
2023/05/27 05:10:50;;;;;;;14.43;4.20;;;;;;;11.75;88.35;102694.34;4971478;28;20071;-88
2023/05/27 05:13:16;;;;;;;14.50;4.10;;;;;;;11.97;85.82;102695.59;4983188;28;20054;-87
2023/05/27 05:15:43;;;;;;;19.33;4.10;;;;;;;12.21;84.37;102694.97;4997828;28;20043;-89
2023/05/27 05:18:10;;;;;;;19.35;4.38;;;;;;;12.31;82.74;102692.59;4996905;28;20043;-89
2023/05/27 05:20:35;;;;;;;14.10;3.85;;;;;;;12.37;82.03;102691.69;4994963;28;20090;-88
2023/05/27 05:23:00;;;;;;;15.93;3.80;;;;;;;12.43;81.15;102700.72;4988151;28;20038;-88
2023/05/27 05:25:26;;;;;;;19.30;3.87;;;;;;;12.48;80.29;102697.38;4984111;28;20047;-88
2023/05/27 05:27:52;;;;;;;15.25;4.10;;;;;;;12.79;79.87;102690.97;4982696;28;20044;-93
2023/05/27 05:30:17;;;;;;;21.00;3.80;;;;;;;13.02;78.56;102681.34;4983477;28;20371;-92
2023/05/27 05:32:42;;;;;;;16.85;3.78;;;;;;;13.17;77.46;102689.03;4977662;28;20187;-90
2023/05/27 05:35:08;;;;;;;16.97;3.97;;;;;;;13.40;76.95;102680.19;4976325;28;20031;-92
2023/05/27 05:37:33;;;;;;;13.10;3.90;;;;;;;13.56;74.92;102689.50;4978704;28;20471;-93
2023/05/27 05:39:59;;;;;;;12.87;3.80;;;;;;;13.52;76.72;102688.31;4986282;28;20039;-93
2023/05/27 05:42:24;;;;;;;14.43;4.30;;;;;;;13.59;75.70;102683.63;4990327;28;20023;-92
2023/05/27 05:44:51;;;;;;;14.83;3.70;;;;;;;13.54;74.31;102683.50;4995070;28;20017;-94
2023/05/27 05:47:17;;;;;;;16.58;4.00;;;;;;;13.47;75.50;102688.16;4997435;28;20082;-93
2023/05/27 05:49:42;;;;;;;19.40;4.43;;;;;;;13.14;75.76;102679.53;4998045;28;20018;-93
2023/05/27 05:52:07;;;;;;;14.73;4.30;;;;;;;12.98;77.03;102677.47;4974797;28;20114;-94
2023/05/27 05:54:33;;;;;;;19.90;4.33;;;;;;;13.04;77.50;102679.25;4975346;28;20023;-93
2023/05/27 05:57:00;;;;;;;13.20;3.70;;;;;;;13.11;77.40;102673.78;4977244;28;20015;-94
2023/05/27 05:59:26;;;;;;;18.63;4.38;;;;;;;13.05;78.07;102680.09;4997729;28;20039;-93
2023/05/27 06:01:51;;;;;;;19.77;4.00;;;;;;;12.85;78.43;102673.94;4994972;28;20061;-93
2023/05/27 06:04:17;;;;;;;15.53;4.03;;;;;;;12.65;79.62;102676.06;4998718;28;20019;-92
2023/05/27 06:06:42;;;;;;;18.90;4.18;;;;;;;12.44;80.72;102664.72;4999056;28;20022;-93
2023/05/27 06:09:07;;;;;;;16.57;4.20;;;;;;;12.33;82.27;102670.88;4998976;28;20474;-91
2023/05/27 06:11:33;;;;;;;16.53;4.67;;;;;;;12.16;82.34;102658.03;4989588;28;20039;-94
2023/05/27 06:14:02;;;;;;;12.93;4.18;;;;;;;12.11;83.79;102669.44;4980029;28;20027;-91
2023/05/27 06:16:28;;;;;;;14.63;4.80;;;;;;;12.10;84.53;102664.28;4978454;28;20034;-93
2023/05/27 06:18:53;;;;;;;12.50;3.93;;;;;;;12.07;83.96;102662.03;4976124;28;20071;-92
2023/05/27 06:21:18;;;;;;;17.35;4.45;;;;;;;12.02;84.31;102667.28;4975088;28;20030;-93
2023/05/27 06:23:44;;;;;;;14.70;3.70;;;;;;;12.00;84.81;102655.94;4968423;28;20043;-93
2023/05/27 06:26:09;;;;;;;18.17;5.00;;;;;;;11.95;84.99;102660.06;4975835;28;20045;-93
2023/05/27 06:28:34;;;;;;;18.10;4.67;;;;;;;11.92;85.50;102647.06;4976488;28;20031;-92
2023/05/27 06:31:00;;;;;;;16.67;4.47;;;;;;;11.93;85.90;102648.72;4975478;28;20026;-89
2023/05/27 06:33:25;;;;;;;17.03;5.27;;;;;;;11.93;86.27;102648.72;4973711;28;20498;-90
2023/05/27 06:35:50;;;;;;;15.88;4.35;;;;;;;11.93;85.59;102656.78;5098123;23;20063;-91
2023/05/27 06:38:16;;;;;;;18.30;4.40;;;;;;;11.89;85.84;102658.25;4984952;28;20014;-91
2023/05/27 06:40:41;;;;;;;17.10;4.67;;;;;;;11.82;86.06;102625.28;5112725;23;20031;-91
2023/05/27 06:57:57;;;;;;;15.10;4.43;;;;;;;12.51;86.16;102646.66;5402099;23;20066;-91
2023/05/27 07:00:22;;;;;;;17.03;5.27;;;;;;;12.63;84.65;102645.88;4977775;28;20515;-91
2023/05/27 07:02:48;;;;;;;15.50;5.03;;;;;;;12.66;85.17;102634.66;4960592;28;20023;-90
2023/05/27 07:05:13;;;;;;;20.60;4.80;;;;;;;12.71;84.43;102637.50;5035086;23;20062;-92
2023/05/27 07:07:39;;;;;;;19.55;5.38;;;;;;;12.78;84.53;102638.22;4961166;28;20102;-92
2023/05/27 07:10:04;;;;;;;18.80;5.50;;;;;;;12.90;83.43;102629.38;4991732;28;20417;-93
2023/05/27 07:12:30;;;;;;;16.13;5.07;;;;;;;12.92;83.01;102621.91;4992211;28;20026;-92
2023/05/27 07:14:55;;;;;;;19.98;5.47;;;;;;;12.79;83.28;102606.78;4992115;28;20052;-92
2023/05/27 07:17:20;;;;;;;18.43;4.60;;;;;;;13.01;83.92;102628.59;4990998;28;20026;-94
2023/05/27 07:19:46;;;;;;;17.67;4.80;;;;;;;13.17;82.08;102624.41;4984598;28;20018;-93
2023/05/27 07:22:11;;;;;;;20.77;6.13;;;;;;;13.16;81.03;102625.47;4995773;28;20045;-96
2023/05/27 07:24:36;;;;;;;17.33;5.23;;;;;;;13.24;81.04;102618.94;4992062;28;20026;-93
2023/05/27 07:27:02;;;;;;;18.33;5.57;;;;;;;13.33;81.80;102636.38;4993682;28;20289;-94
2023/05/27 07:29:27;;;;;;;16.67;5.03;;;;;;;13.45;80.33;102641.81;4990221;28;20438;-94
2023/05/27 07:31:53;;;;;;;22.97;5.37;;;;;;;13.61;79.85;102635.72;4990559;28;20058;-93
2023/05/27 07:34:20;;;;;;;16.67;5.07;;;;;;;13.75;78.37;102630.91;4986112;28;20113;-93
2023/05/27 07:36:46;;;;;;;19.25;5.60;;;;;;;13.82;78.56;102635.38;4993805;28;20426;-94
2023/05/27 07:39:11;;;;;;;19.37;5.10;;;;;;;13.97;77.56;102633.00;4993854;28;20046;-93
2023/05/27 07:41:36;;;;;;;22.55;5.82;;;;;;;14.00;78.22;102629.00;4995004;28;20042;-95
2023/05/27 07:44:01;;;;;;;16.30;5.17;;;;;;;14.06;75.99;102623.50;4994201;28;20041;-95
2023/05/27 07:46:27;;;;;;;15.47;4.53;;;;;;;14.19;76.81;102617.03;4990502;28;20041;-94
2023/05/27 07:48:54;;;;;;;18.57;5.00;;;;;;;14.31;77.07;102614.31;4992529;28;20038;-94
2023/05/27 07:51:19;;;;;;;20.67;5.82;;;;;;;14.44;76.45;102615.06;4992703;28;20058;-94
2023/05/27 07:53:45;;;;;;;19.67;5.13;;;;;;;14.59;76.22;102612.69;4992961;28;20046;-92
2023/05/27 07:56:10;;;;;;;17.50;5.60;;;;;;;14.84;75.08;102606.13;4963345;28;20034;-92
2023/05/27 07:58:35;;;;;;;15.90;5.53;;;;;;;14.96;73.04;102606.06;5007556;28;20041;-93
2023/05/27 08:01:01;;;;;;;16.70;5.33;;;;;;;14.99;72.20;102603.69;4994809;28;20517;-93
2023/05/27 08:03:26;;;;;;;21.27;5.17;;;;;;;15.04;72.45;102602.97;4982111;28;20114;-92
2023/05/27 08:05:51;;;;;;;21.10;5.38;;;;;;;15.10;73.10;102598.47;4981821;28;20026;-92
2023/05/27 08:08:17;;;;;;;19.63;4.57;;;;;;;15.33;72.58;102596.69;4987968;28;20138;-93
2023/05/27 08:10:44;;;;;;;18.40;5.37;;;;;;;15.37;69.58;102589.69;4986790;28;20053;-92
2023/05/27 08:13:10;;;;;;;17.30;5.43;;;;;;;15.44;69.38;102593.03;5145818;23;20042;-92
2023/05/27 08:15:35;;;;;;;21.02;6.00;;;;;;;15.51;69.31;102580.19;4971956;28;20039;-86
2023/05/27 08:18:01;;;;;;;20.53;5.70;;;;;;;15.49;69.16;102576.94;4954231;28;20047;-85
2023/05/27 08:20:27;;;;;;;17.77;6.10;;;;;;;15.64;68.73;102583.59;4959510;28;20121;-88
2023/05/27 08:22:53;;;;;;;16.23;5.13;;;;;;;15.80;66.82;102585.44;4987860;28;20027;-87
2023/05/27 08:25:18;;;;;;;16.42;5.72;;;;;;;15.87;68.07;102580.72;4966218;28;20030;-87
2023/05/27 08:27:45;;;;;;;18.90;5.10;;;;;;;15.94;68.65;102574.28;4969246;28;20038;-86
2023/05/27 08:30:12;;;;;;;18.90;5.40;;;;;;;16.05;67.14;102573.34;4957325;28;20587;-88
2023/05/27 08:32:37;;;;;;;19.08;6.03;;;;;;;16.22;67.60;102575.16;4962459;28;20485;-88
2023/05/27 08:35:03;;;;;;;14.97;5.90;;;;;;;16.35;65.57;102566.63;4954077;28;20051;-87
2023/05/27 08:37:28;;;;;;;15.15;5.13;;;;;;;16.49;65.13;102559.75;4954445;28;20027;-87
2023/05/27 08:39:54;;;;;;;21.13;5.97;;;;;;;16.59;64.73;102548.19;4976732;28;20106;-87
2023/05/27 08:42:20;;;;;;;16.92;5.60;;;;;;;16.64;64.11;102548.25;4963958;28;20027;-88
2023/05/27 08:44:45;;;;;;;19.10;5.40;;;;;;;16.66;64.95;102548.00;4966612;28;20503;-88
2023/05/27 08:47:11;;;;;;;17.63;5.38;;;;;;;16.68;64.67;102543.13;4966610;28;20045;-88
2023/05/27 08:49:36;;;;;;;17.97;5.50;;;;;;;16.85;64.98;102547.59;4974283;28;20372;-88
2023/05/27 08:52:03;;;;;;;16.88;5.75;;;;;;;16.99;64.05;102539.91;4964988;28;20095;-86
2023/05/27 08:54:30;;;;;;;19.70;5.60;;;;;;;16.97;60.99;102536.63;4974205;28;20434;-87
2023/05/27 08:56:59;;;;;;;19.63;5.30;;;;;;;17.00;61.10;102536.91;4972142;28;20034;-88
2023/05/27 08:59:25;;;;;;;20.20;6.25;;;;;;;17.16;63.62;102531.63;4975945;28;20026;-88
2023/05/27 09:01:51;;;;;;;16.42;5.13;;;;;;;17.36;59.77;102539.84;4968123;28;20089;-87
2023/05/27 09:04:17;;;;;;;16.35;5.65;;;;;;;17.34;59.00;102524.94;4979497;28;20034;-86
2023/05/27 09:06:42;;;;;;;23.50;6.13;;;;;;;17.37;60.68;102519.81;4984050;28;20029;-87
2023/05/27 09:09:09;;;;;;;14.03;5.40;;;;;;;17.64;58.39;102527.00;4954820;28;20499;-88
2023/05/27 09:11:39;;;;;;;15.65;5.55;;;;;;;17.62;58.09;102529.16;4943619;28;20034;-86
2023/05/27 09:14:04;;;;;;;20.77;5.28;;;;;;;17.78;59.29;102519.22;4979099;28;20132;-93
2023/05/27 09:16:30;;;;;;;21.10;5.97;;;;;;;17.81;57.65;102512.44;4997508;28;20490;-92
2023/05/27 09:18:55;;;;;;;17.27;5.90;;;;;;;18.05;58.38;102515.50;4981214;28;20023;-92
2023/05/27 09:21:20;;;;;;;18.43;5.60;;;;;;;18.25;56.38;102511.19;4976738;28;20368;-88
2023/05/27 09:23:46;;;;;;;22.20;5.70;;;;;;;18.49;55.95;102500.63;4973524;28;20027;-85
2023/05/27 09:26:12;;;;;;;19.90;6.23;;;;;;;18.72;57.02;102503.91;4959622;28;20110;-86
2023/05/27 09:28:38;;;;;;;17.35;5.30;;;;;;;19.08;56.20;102498.44;4963384;28;20038;-86
2023/05/27 09:31:06;;;;;;;16.77;5.40;;;;;;;19.34;53.02;102503.81;4972385;28;20110;-84
2023/05/27 09:33:33;;;;;;;18.67;5.88;;;;;;;19.50;52.30;102499.97;4973447;28;20034;-86
2023/05/27 09:36:01;;;;;;;17.65;5.82;;;;;;;19.97;52.37;102497.03;4976241;28;20034;-88
2023/05/27 09:38:33;;;;;;;17.57;5.60;;;;;;;20.18;52.50;102496.91;4964857;28;20031;-93
2023/05/27 09:40:59;;;;;;;17.90;5.57;;;;;;;20.49;50.45;102502.94;4985514;28;20293;-90
2023/05/27 09:43:28;;;;;;;19.67;5.43;;;;;;;20.66;48.19;102491.59;4979306;28;20421;-92
2023/05/27 09:46:02;;;;;;;21.35;5.63;;;;;;;20.68;47.44;102496.78;4976940;28;20026;-93
2023/05/27 09:48:34;;;;;;;16.58;5.40;;;;;;;20.87;47.01;102486.00;4969812;28;20118;-87
2023/05/27 09:51:00;;;;;;;16.55;4.63;;;;;;;20.94;44.66;102491.09;4973579;28;20482;-85
2023/05/27 09:53:26;;;;;;;17.17;5.75;;;;;;;21.03;46.15;102484.72;4971973;28;20446;-84
2023/05/27 09:55:53;;;;;;;18.63;6.03;;;;;;;21.16;46.08;102475.06;4972626;28;20030;-85
2023/05/27 09:58:19;;;;;;;19.65;5.55;;;;;;;21.41;46.30;102483.22;4964860;28;20525;-88
2023/05/27 10:00:47;;;;;;;15.98;5.40;;;;;;;21.26;43.15;102471.41;4956130;28;20027;-88
2023/05/27 10:03:13;;;;;;;14.13;4.93;;;;;;;21.35;44.32;102474.28;4959503;28;20039;-87
2023/05/27 10:05:40;;;;;;;20.30;5.70;;;;;;;21.58;45.08;102469.91;4955903;28;20298;-88
2023/05/27 10:08:05;;;;;;;17.92;5.57;;;;;;;21.58;44.00;102466.38;4956130;28;20150;-88
2023/05/27 10:10:32;;;;;;;16.10;5.30;;;;;;;21.58;43.93;102471.84;4938833;29;20054;-87
2023/05/27 10:12:59;;;;;;;13.80;4.80;;;;;;;21.53;42.82;102466.44;4957113;28;20407;-87
2023/05/27 10:15:31;;;;;;;16.73;5.93;;;;;;;21.54;42.77;102460.72;4961456;28;20031;-89
2023/05/27 10:18:10;;;;;;;14.07;5.30;;;;;;;21.26;43.31;102454.25;4966374;28;20661;-89
2023/05/27 10:20:50;;;;;;;20.13;4.80;;;;;;;21.22;43.78;102458.66;4964560;28;20035;-88
2023/05/27 10:23:18;;;;;;;19.95;4.70;;;;;;;21.32;44.88;102453.91;4972963;28;20019;-90
2023/05/27 10:25:48;;;;;;;15.77;5.20;;;;;;;21.37;44.34;102452.19;4955750;28;20077;-89
2023/05/27 10:28:27;;;;;;;16.60;5.00;;;;;;;21.42;44.16;102452.13;4973381;28;20027;-90
2023/05/27 10:31:02;;;;;;;17.65;4.55;;;;;;;20.95;42.70;102454.59;4954982;28;20061;-89
2023/05/27 10:33:31;;;;;;;17.20;5.05;;;;;;;20.71;43.65;102444.47;4955047;28;20034;-90
2023/05/27 10:36:04;;;;;;;12.52;4.45;;;;;;;20.46;45.15;102440.88;4974595;28;20023;-89
2023/05/27 10:38:29;;;;;;;19.70;5.32;;;;;;;20.21;44.91;102448.16;4977414;28;20546;-90
2023/05/27 10:41:00;;;;;;;15.33;4.50;;;;;;;20.00;45.79;102436.63;4972627;28;20038;-89
2023/05/27 10:43:29;;;;;;;19.90;5.38;;;;;;;19.81;46.08;102441.91;4972589;28;20023;-89
2023/05/27 10:46:12;;;;;;;21.63;4.95;;;;;;;19.71;47.32;102434.59;4970174;28;20054;-90
2023/05/27 10:48:39;;;;;;;17.85;4.88;;;;;;;19.52;47.66;102427.09;4971622;28;20030;-89
2023/05/27 10:51:06;;;;;;;13.97;4.83;;;;;;;19.54;47.22;102434.97;4973526;28;20519;-88
2023/05/27 10:53:31;;;;;;;15.37;5.00;;;;;;;19.51;48.12;102430.09;4971374;28;21050;-90
2023/05/27 10:55:59;;;;;;;21.08;5.25;;;;;;;19.57;48.25;102428.97;4972219;28;20027;-89
2023/05/27 10:58:25;;;;;;;14.07;4.70;;;;;;;19.85;49.01;102420.38;4970574;28;20043;-88
2023/05/27 11:00:52;;;;;;;13.25;4.65;;;;;;;20.10;46.99;102412.03;4970908;28;20493;-88
2023/05/27 11:03:26;;;;;;;18.80;4.80;;;;;;;20.37;45.95;102410.75;4962888;28;20130;-89
2023/05/27 11:06:03;;;;;;;18.85;4.93;;;;;;;20.70;45.83;102400.06;4981271;28;20030;-90
2023/05/27 11:08:29;;;;;;;14.23;4.75;;;;;;;20.91;45.08;102404.53;4992182;28;20026;-89
2023/05/27 11:11:10;;;;;;;16.55;4.85;;;;;;;21.16;43.15;102396.03;4972452;28;20054;-89
2023/05/27 11:13:39;;;;;;;16.73;4.90;;;;;;;21.41;42.91;102393.25;4953245;28;20075;-89
2023/05/27 11:16:06;;;;;;;18.27;4.53;;;;;;;21.50;41.72;102399.69;4962982;28;20030;-89
2023/05/27 11:18:41;;;;;;;19.17;4.78;;;;;;;21.62;41.63;102388.38;4963831;28;20478;-89
2023/05/27 11:21:08;;;;;;;12.25;4.38;;;;;;;21.89;41.67;102384.94;4955410;28;20031;-90
2023/05/27 11:23:43;;;;;;;13.82;4.20;;;;;;;22.03;40.90;102378.72;4978311;28;20382;-90
2023/05/27 11:26:15;;;;;;;12.87;4.07;;;;;;;22.12;39.91;102389.75;4970844;28;20549;-91
2023/05/27 11:28:54;;;;;;;16.50;4.80;;;;;;;22.28;40.26;102382.09;4966570;28;20279;-91
2023/05/27 11:31:21;;;;;;;19.90;4.57;;;;;;;22.71;40.85;102362.75;4957582;29;20471;-89
2023/05/27 11:33:51;;;;;;;20.35;5.25;;;;;;;22.91;38.14;102372.47;4974970;28;20053;-90
2023/05/27 11:36:17;;;;;;;17.80;4.25;;;;;;;23.26;39.05;102370.13;4983586;28;20163;-90
2023/05/27 11:38:50;;;;;;;12.10;4.70;;;;;;;23.28;37.74;102356.94;4954578;29;20051;-90
2023/05/27 11:41:17;;;;;;;14.00;4.80;;;;;;;23.20;35.82;102359.56;4935728;29;20054;-91
2023/05/27 11:43:52;;;;;;;15.68;5.05;;;;;;;23.05;37.08;102356.03;4953424;28;20031;-90
2023/05/27 11:46:18;;;;;;;11.23;4.10;;;;;;;23.11;37.06;102349.34;4952425;29;20031;-90
2023/05/27 11:48:44;;;;;;;16.07;4.40;;;;;;;23.10;36.43;102341.44;4953288;29;20034;-90